Agashi, India

1:11 AM IST on July 25, 2017 (GMT +0530)
Chhatrapati Shivaji International | | Change Station

Elev 46 ft 19.12 °N, 72.85 °E | Updated 11 minutes ago

Rain
Rain
81 °F
Feels Like 87 °F
N
10
Wind Variable Wind from WSW
Gusts 22 mph

Today
High -- | Low -- °F
--% Chance of Precip.
Yesterday
High -- | Low -- °F
Precip. -- in
Pressure 29.65 in
Visibility 0.9 miles
Clouds Few 1200 ft
Scattered Clouds 1800 ft
Few 2500 ft
Overcast 8000 ft
Heat Index 87 °F
Dew Point 77 °F
Humidity 89%
Rainfall 0.00 in
Snow Depth Not available.
6:12 AM 7:18 PM
Waxing Crescent, 3% visible
METAR VABB 241930Z 24009G19KT 1400 R27/1800 RA FEW012 SCT018 FEW025TCU OVC080 27/25 Q1004 TEMPO 0800 +RA
Pressure 29.65 in
Visibility 0.9 miles
Clouds Few 1200 ft
Scattered Clouds 1800 ft
Few 2500 ft
Overcast 8000 ft
Heat Index 87 °F
Dew Point 77 °F
Humidity 89%
Rainfall 0.00 in
Snow Depth Not available.
6:12 AM 7:18 PM
Waxing Crescent, 3% visible
METAR VABB 241930Z 24009G19KT 1400 R27/1800 RA FEW012 SCT018 FEW025TCU OVC080 27/25 Q1004 TEMPO 0800 +RA

Get Severe Weather Alerts

Thanks for signing up!

Be on the lookout for a verification email in your inbox.

You'll start receiving the daily forecast at 6 AM.

×

10-Day Weather Forecast

No radar image for this location.
×

Almanac

Astronomy

Jul. 25, 2017 Rise Set
Actual Time
Civil Twilight
Nautical Twilight
Astronomical Twilight
Moon
Length of Visible Light
Length of Day
Tomorrow will be .
, % of the Moon is Illuminated

Today's Extremes

Country Highs Country Lows

Community

WunderPhotos

Category 6

Welcome to Category 6. This is the collective home for Weather Underground's featured writeups by Dr. Jeff Masters (right), Bob Henson (left), Chris Burt, and other regular contributors.

Nearby

Air Quality

  Air Quality AQ Index Pollutant
Not available.

Snow Depth

Station Depth Elevation

Earthquake Activity

City Distance Mag. Time & Date
Minimum magnitude displayed is 2.5.

Coastal Water Temperatures

Place Temperature

Stations

Nearby Weather Stations

Station Location Temp. Windchill Dew Point Humidity Wind Precip. Elev Updated Type